Time;durP1;ratioP1;P1;durP2;ratioP2;P2;SDS_P1;SDS_P2;PMS_P1;PMS_P2;Temp;Humidity;BMP_temperature;BMP_pressure;BME280_temperature;BME280_humidity;BME280_pressure;Samples;Min_cycle;Max_cycle;Signal;HPM_P1;HPM_P2
2021/10/13 00:02:05;;;;;;;15.30;6.43;;;9.80;94.50;;;;;;5065574;28;20184;-83
2021/10/13 00:04:31;;;;;;;12.33;6.60;;;9.80;95.40;;;;;;5072340;28;20609;-83
2021/10/13 00:06:57;;;;;;;10.77;6.43;;;9.80;95.90;;;;;;5074677;28;20207;-84
2021/10/13 00:09:23;;;;;;;9.07;6.13;;;9.70;96.30;;;;;;5076856;28;20201;-85
2021/10/13 00:11:52;;;;;;;14.27;7.67;;;9.80;96.60;;;;;;5074307;28;20313;-84
2021/10/13 00:14:29;;;;;;;9.40;5.73;;;9.80;96.80;;;;;;5058004;28;20270;-84
2021/10/13 00:17:34;;;;;;;9.27;6.40;;;9.90;96.60;;;;;;5065362;28;20222;-85
2021/10/13 00:20:19;;;;;;;9.60;6.67;;;9.90;96.40;;;;;;5056076;28;20196;-84
2021/10/13 00:23:10;;;;;;;;;;;;;;;;;;;;;
2021/10/13 00:25:38;;;;;;;12.00;6.40;;;10.00;95.60;;;;;;5055427;28;20180;-84
2021/10/13 00:28:39;;;;;;;12.23;6.57;;;10.10;94.60;;;;;;5055770;28;20626;-85
2021/10/13 00:31:08;;;;;;;9.67;6.20;;;10.10;93.90;;;;;;5062341;28;20173;-85
2021/10/13 00:33:34;;;;;;;11.57;5.80;;;9.90;94.00;;;;;;5066511;28;20173;-85
2021/10/13 00:36:01;;;;;;;8.17;5.53;;;9.90;94.00;;;;;;5056101;28;20165;-84
2021/10/13 00:38:27;;;;;;;7.73;5.07;;;9.70;94.60;;;;;;5056705;28;20181;-85
2021/10/13 00:40:59;;;;;;;10.23;5.60;;;9.60;95.30;;;;;;5061013;28;20238;-84
2021/10/13 00:43:26;;;;;;;11.77;6.50;;;9.60;95.70;;;;;;5062085;28;20177;-85
2021/10/13 00:46:05;;;;;;;9.13;5.37;;;9.60;96.20;;;;;;5056300;28;20178;-85
2021/10/13 00:48:41;;;;;;;11.80;6.37;;;9.60;96.50;;;;;;5055103;28;20236;-84
2021/10/13 00:51:09;;;;;;;10.67;5.67;;;9.60;96.60;;;;;;5055277;28;20169;-85
2021/10/13 00:53:35;;;;;;;10.87;5.97;;;9.40;96.50;;;;;;5053484;28;20263;-85
2021/10/13 00:56:01;;;;;;;10.77;6.53;;;9.30;97.40;;;;;;5053716;28;20173;-85
2021/10/13 00:58:27;;;;;;;9.30;6.30;;;9.30;97.70;;;;;;5054980;28;20184;-90
2021/10/13 01:01:21;;;;;;;10.53;6.57;;;9.30;97.50;;;;;;5064272;28;20165;-85
2021/10/13 01:04:17;;;;;;;14.43;6.67;;;9.30;97.60;;;;;;5070874;28;20267;-85
2021/10/13 01:07:17;;;;;;;8.67;6.27;;;9.30;97.70;;;;;;5066300;28;20176;-88
2021/10/13 01:10:55;;;;;;;10.33;5.83;;;9.40;97.60;;;;;;5070409;28;20189;-87
2021/10/13 01:17:10;;;;;;;8.70;5.47;;;9.10;97.00;;;;;;5053605;28;20169;-87
2021/10/13 01:19:47;;;;;;;9.87;5.40;;;9.10;97.80;;;;;;5036835;28;20839;-86
2021/10/13 01:22:21;;;;;;;7.30;5.60;;;9.10;98.20;;;;;;5053021;28;20185;-89
2021/10/13 01:25:23;;;;;;;11.10;5.90;;;9.00;98.60;;;;;;5054539;28;20591;-88
2021/10/13 01:28:08;;;;;;;9.17;5.93;;;8.90;99.30;;;;;;5056032;28;20291;-87
2021/10/13 01:30:49;;;;;;;9.60;5.60;;;8.80;99.90;;;;;;5055669;28;20168;-88
2021/10/13 01:33:39;;;;;;;10.63;6.17;;;8.80;99.90;;;;;;5054659;28;20246;-88
2021/10/13 01:36:48;;;;;;;11.63;5.90;;;8.90;99.90;;;;;;5053972;28;20176;-87
2021/10/13 01:39:49;;;;;;;9.63;5.47;;;9.00;99.90;;;;;;5054230;28;20184;-89
2021/10/13 01:42:29;;;;;;;9.47;5.43;;;9.00;99.90;;;;;;5057498;28;20180;-87
2021/10/13 01:45:06;;;;;;;9.37;5.33;;;9.00;99.50;;;;;;5056250;28;20173;-87
2021/10/13 01:47:51;;;;;;;10.30;5.80;;;8.90;99.70;;;;;;5068119;28;20686;-87
2021/10/13 01:50:26;;;;;;;9.50;5.97;;;8.80;99.90;;;;;;5055575;28;20751;-88
2021/10/13 01:52:56;;;;;;;9.70;5.83;;;8.80;99.90;;;;;;5053111;28;20257;-89
2021/10/13 01:55:50;;;;;;;10.60;6.37;;;8.90;99.90;;;;;;5054444;28;20176;-88
2021/10/13 01:58:31;;;;;;;9.33;5.60;;;8.80;99.90;;;;;;5053110;28;20200;-89
2021/10/13 02:01:02;;;;;;;9.73;5.17;;;8.80;99.90;;;;;;5053027;28;20222;-88
2021/10/13 02:03:33;;;;;;;11.10;5.37;;;8.70;99.90;;;;;;5054509;28;20664;-88
2021/10/13 02:06:14;;;;;;;8.97;5.50;;;8.60;99.90;;;;;;5052193;28;20322;-88
2021/10/13 02:09:03;;;;;;;11.57;6.50;;;8.70;99.90;;;;;;5075889;28;20208;-85
2021/10/13 02:11:32;;;;;;;7.70;5.67;;;8.70;99.90;;;;;;5064606;28;20168;-88
2021/10/13 02:14:13;;;;;;;9.17;5.90;;;8.70;99.90;;;;;;5053290;28;20200;-89
2021/10/13 02:16:45;;;;;;;9.00;5.70;;;8.60;99.90;;;;;;5059880;28;20656;-86
2021/10/13 02:19:15;;;;;;;11.53;5.53;;;8.60;99.90;;;;;;5056122;28;20538;-89
2021/10/13 02:21:46;;;;;;;11.43;5.47;;;8.60;99.90;;;;;;5060546;28;20214;-88
2021/10/13 02:24:18;;;;;;;8.90;5.33;;;8.60;99.90;;;;;;5066185;28;20197;-90
2021/10/13 02:26:52;;;;;;;9.27;5.43;;;8.70;99.90;;;;;;5057759;28;20177;-85
2021/10/13 02:29:20;;;;;;;9.83;5.20;;;8.70;99.90;;;;;;5054879;28;20220;-84
2021/10/13 02:31:49;;;;;;;8.73;5.77;;;8.70;99.90;;;;;;5053808;28;20176;-86
2021/10/13 02:34:15;;;;;;;10.37;5.47;;;8.70;99.90;;;;;;5052757;28;20177;-88
2021/10/13 02:36:42;;;;;;;12.37;5.20;;;8.80;99.90;;;;;;5054140;28;20161;-90
2021/10/13 02:39:11;;;;;;;7.80;5.17;;;8.80;99.90;;;;;;5054600;28;20242;-86
2021/10/13 02:41:38;;;;;;;6.73;5.07;;;9.00;99.90;;;;;;5063286;28;20165;-85
2021/10/13 02:44:08;;;;;;;8.07;4.90;;;9.00;99.90;;;;;;5063119;28;20276;-85
2021/10/13 02:46:51;;;;;;;11.50;5.87;;;9.10;99.90;;;;;;5053435;28;20196;-87
2021/10/13 02:49:45;;;;;;;8.00;5.17;;;9.10;99.90;;;;;;5052510;28;20200;-89
2021/10/13 02:52:27;;;;;;;9.87;5.73;;;9.20;99.90;;;;;;5053550;28;20318;-87
2021/10/13 02:55:31;;;;;;;8.37;5.63;;;9.10;99.90;;;;;;5051982;28;20173;-84
2021/10/13 02:58:15;;;;;;;9.63;5.40;;;9.10;99.70;;;;;;5052246;28;20203;-85
2021/10/13 03:04:12;;;;;;;8.07;5.90;;;8.90;99.90;;;;;;5055001;28;20196;-84
2021/10/13 03:13:53;;;;;;;9.37;5.40;;;9.00;99.90;;;;;;5062232;28;20181;-84
2021/10/13 03:16:34;;;;;;;8.00;5.40;;;9.00;99.90;;;;;;5050062;28;20645;-84
2021/10/13 03:19:31;;;;;;;8.37;5.00;;;9.10;99.90;;;;;;5058283;28;20246;-85
2021/10/13 03:22:40;;;;;;;9.53;5.63;;;9.00;99.80;;;;;;5058605;28;20205;-83
2021/10/13 03:25:28;;;;;;;6.93;5.30;;;8.90;99.90;;;;;;5059753;28;20177;-86
2021/10/13 03:28:00;;;;;;;11.20;5.57;;;8.90;99.90;;;;;;5058194;28;20208;-82
2021/10/13 03:30:34;;;;;;;9.37;5.07;;;8.80;99.90;;;;;;5060010;28;20620;-83
2021/10/13 03:33:03;;;;;;;10.47;5.67;;;8.70;99.90;;;;;;5057273;28;20279;-85
2021/10/13 03:35:34;;;;;;;11.77;5.60;;;8.70;99.90;;;;;;5074468;28;20169;-83
2021/10/13 03:41:37;;;;;;;11.30;5.60;;;8.70;99.90;;;;;;5077159;28;20164;-85
2021/10/13 03:44:03;;;;;;;8.30;5.10;;;8.80;99.90;;;;;;5062053;28;20207;-85
2021/10/13 03:46:49;;;;;;;9.60;5.37;;;8.80;99.90;;;;;;5057680;28;20204;-84
2021/10/13 03:49:56;;;;;;;9.67;5.33;;;8.90;99.90;;;;;;5056999;28;20200;-85
2021/10/13 03:52:31;;;;;;;10.03;6.20;;;9.10;99.90;;;;;;5053991;28;20176;-85
2021/10/13 03:54:57;;;;;;;11.27;5.93;;;8.90;99.90;;;;;;5065977;28;20179;-85
2021/10/13 04:00:35;;;;;;;;;;;;;;;;;;;;;
2021/10/13 04:03:55;;;;;;;8.83;5.90;;;8.90;99.90;;;;;;5070308;28;20196;-84
2021/10/13 04:06:23;;;;;;;9.90;5.70;;;8.90;99.90;;;;;;5061016;28;20685;-84
2021/10/13 04:08:49;;;;;;;9.57;5.43;;;8.80;99.90;;;;;;5057742;28;20205;-84
2021/10/13 04:11:15;;;;;;;9.73;5.77;;;8.70;99.90;;;;;;5057150;28;20199;-86
2021/10/13 04:14:15;;;;;;;12.03;6.07;;;8.70;99.90;;;;;;5055691;28;20173;-88
2021/10/13 04:16:41;;;;;;;7.30;5.40;;;8.60;99.90;;;;;;5056536;28;20192;-87
2021/10/13 04:19:10;;;;;;;9.17;5.60;;;8.60;99.90;;;;;;5067290;28;20169;-88
2021/10/13 04:22:07;;;;;;;8.43;5.63;;;8.70;99.90;;;;;;5067216;28;20196;-85
2021/10/13 04:24:33;;;;;;;11.47;5.90;;;8.70;99.90;;;;;;5057244;28;20647;-88
2021/10/13 04:27:01;;;;;;;10.10;6.37;;;8.80;99.90;;;;;;5054991;28;20192;-86
2021/10/13 04:29:27;;;;;;;11.53;6.07;;;8.80;99.90;;;;;;5053589;28;20208;-85
2021/10/13 04:32:56;;;;;;;9.33;5.50;;;8.80;99.90;;;;;;5054762;28;20176;-89
2021/10/13 04:35:23;;;;;;;11.03;6.07;;;8.80;99.90;;;;;;4950416;29;20259;-89
2021/10/13 04:37:49;;;;;;;12.27;5.93;;;8.80;99.90;;;;;;5051128;28;20284;-89
2021/10/13 04:40:17;;;;;;;9.00;5.83;;;8.80;99.90;;;;;;5054517;28;20196;-87
2021/10/13 04:42:50;;;;;;;12.70;6.37;;;8.70;99.90;;;;;;5077120;28;20177;-88
2021/10/13 04:45:15;;;;;;;13.33;6.53;;;8.70;99.90;;;;;;5066523;28;20196;-87
2021/10/13 04:47:45;;;;;;;10.73;6.47;;;8.70;99.90;;;;;;5059389;28;20223;-85
2021/10/13 04:53:35;;;;;;;11.63;5.50;;;8.90;99.90;;;;;;5060405;28;20201;-88
2021/10/13 04:56:02;;;;;;;11.27;6.80;;;9.00;99.90;;;;;;5054710;28;20177;-89
2021/10/13 04:58:29;;;;;;;9.40;6.53;;;9.20;99.90;;;;;;5054887;28;20275;-87
2021/10/13 05:00:55;;;;;;;12.17;6.37;;;9.10;99.90;;;;;;5060529;28;20228;-83
2021/10/13 05:03:21;;;;;;;10.60;6.90;;;9.20;99.90;;;;;;5078991;28;20170;-83
2021/10/13 05:06:05;;;;;;;11.23;6.67;;;9.10;99.90;;;;;;5064245;28;20196;-84
2021/10/13 05:09:15;;;;;;;11.70;6.37;;;9.20;99.90;;;;;;5055520;28;20295;-84
2021/10/13 05:12:41;;;;;;;9.03;5.73;;;9.10;99.90;;;;;;5050940;28;20188;-83
2021/10/13 05:15:34;;;;;;;9.47;5.93;;;9.10;99.90;;;;;;5072278;28;20180;-84
2021/10/13 05:24:45;;;;;;;10.80;6.43;;;9.30;99.90;;;;;;5033174;28;20324;-83
2021/10/13 05:27:16;;;;;;;11.70;6.73;;;9.40;99.90;;;;;;5071571;28;20197;-83
2021/10/13 05:30:06;;;;;;;12.37;6.70;;;9.40;99.90;;;;;;5072636;28;20180;-84
2021/10/13 05:32:32;;;;;;;13.53;6.93;;;9.40;99.90;;;;;;5072817;28;20183;-84
2021/10/13 05:35:01;;;;;;;14.33;7.17;;;9.60;99.90;;;;;;5074528;28;20184;-83
2021/10/13 05:37:33;;;;;;;13.77;7.60;;;9.70;99.40;;;;;;5082586;28;20192;-83
2021/10/13 05:40:38;;;;;;;;;;;;;;;;;;;;;
2021/10/13 05:43:49;;;;;;;;;;;;;;;;;;;;;
2021/10/13 05:46:52;;;;;;;12.07;6.70;;;9.70;99.10;;;;;;5062545;28;20191;-87
2021/10/13 05:49:43;;;;;;;11.23;6.80;;;9.60;99.60;;;;;;5057035;28;20227;-87
2021/10/13 05:53:05;;;;;;;12.33;6.53;;;9.50;99.90;;;;;;5067879;28;20172;-86
2021/10/13 05:55:42;;;;;;;12.67;6.70;;;9.50;99.90;;;;;;5057195;28;20653;-85
2021/10/13 05:58:08;;;;;;;13.63;6.33;;;9.50;99.90;;;;;;5056996;28;20625;-84
2021/10/13 06:00:37;;;;;;;11.10;5.83;;;9.50;99.90;;;;;;5058470;28;20191;-84
2021/10/13 06:03:04;;;;;;;14.67;6.63;;;9.60;99.90;;;;;;5057833;28;20272;-83
2021/10/13 06:05:30;;;;;;;15.50;6.43;;;9.60;99.90;;;;;;5059454;28;20234;-83
2021/10/13 06:07:58;;;;;;;12.03;6.30;;;9.60;99.90;;;;;;5074063;28;20204;-86
2021/10/13 06:11:20;;;;;;;13.67;6.23;;;9.80;99.90;;;;;;5053887;28;20264;-86
2021/10/13 06:13:46;;;;;;;12.60;6.57;;;9.90;99.00;;;;;;5063020;28;20206;-87
2021/10/13 06:16:13;;;;;;;15.00;7.00;;;9.70;99.00;;;;;;5066425;28;20164;-85
2021/10/13 06:19:09;;;;;;;16.30;6.43;;;9.70;99.60;;;;;;5054863;28;20537;-87
2021/10/13 06:21:35;;;;;;;12.47;5.80;;;9.70;99.50;;;;;;5054925;28;20286;-87
2021/10/13 06:24:14;;;;;;;13.87;6.93;;;9.50;99.80;;;;;;5053410;28;20255;-87
2021/10/13 06:26:40;;;;;;;11.87;7.23;;;9.70;99.90;;;;;;5053599;28;20193;-88
2021/10/13 06:29:06;;;;;;;15.53;7.87;;;9.80;99.90;;;;;;5054900;28;20244;-87
2021/10/13 06:31:35;;;;;;;10.67;6.40;;;9.90;99.90;;;;;;5052847;28;20169;-87
2021/10/13 06:34:02;;;;;;;12.00;6.80;;;9.90;99.90;;;;;;5053811;28;20161;-87
2021/10/13 06:36:29;;;;;;;13.03;7.10;;;9.90;99.90;;;;;;5053254;28;20169;-89
2021/10/13 06:38:54;;;;;;;10.83;6.37;;;10.00;99.80;;;;;;5051946;28;20172;-87
2021/10/13 06:41:21;;;;;;;10.70;6.03;;;10.00;99.20;;;;;;5053518;28;20194;-86
2021/10/13 06:43:46;;;;;;;11.53;6.23;;;10.10;97.80;;;;;;5058150;28;20160;-85
2021/10/13 06:46:12;;;;;;;13.43;6.37;;;10.10;97.40;;;;;;5063958;28;20239;-88
2021/10/13 06:48:38;;;;;;;12.53;6.83;;;10.10;97.90;;;;;;5054802;28;20216;-89
2021/10/13 06:51:04;;;;;;;10.10;6.77;;;10.10;98.30;;;;;;5053173;28;20516;-87
2021/10/13 06:53:32;;;;;;;12.03;7.33;;;10.10;98.90;;;;;;5053552;28;20196;-87
2021/10/13 06:56:03;;;;;;;10.20;7.27;;;10.10;99.10;;;;;;5050852;28;20184;-83
2021/10/13 06:58:33;;;;;;;10.80;6.80;;;10.20;99.20;;;;;;5073998;28;20169;-84
2021/10/13 07:00:58;;;;;;;11.20;6.30;;;10.20;98.90;;;;;;5073435;28;20173;-84
2021/10/13 07:03:25;;;;;;;14.87;6.37;;;10.20;98.80;;;;;;5070559;28;20168;-83
2021/10/13 07:06:07;;;;;;;11.93;6.33;;;10.40;98.90;;;;;;5063875;28;20173;-89
2021/10/13 07:08:33;;;;;;;15.57;6.20;;;10.50;98.30;;;;;;5054418;28;20676;-82
2021/10/13 07:11:09;;;;;;;10.03;6.57;;;10.70;97.70;;;;;;5054382;28;20184;-87
2021/10/13 07:13:58;;;;;;;12.90;6.60;;;10.80;96.70;;;;;;5064610;28;20165;-88
2021/10/13 07:16:36;;;;;;;17.30;7.03;;;10.80;96.50;;;;;;5051010;28;20226;-89
2021/10/13 07:19:02;;;;;;;13.30;7.90;;;10.90;96.10;;;;;;5056197;28;20252;-88
2021/10/13 07:21:28;;;;;;;11.73;6.63;;;10.80;95.90;;;;;;5063305;28;20644;-89
2021/10/13 07:23:56;;;;;;;11.30;6.43;;;10.90;96.20;;;;;;5056918;28;20173;-88
2021/10/13 07:26:44;;;;;;;10.40;6.40;;;10.80;95.90;;;;;;5056889;28;20193;-84
2021/10/13 07:29:15;;;;;;;12.50;7.17;;;11.00;95.90;;;;;;5066981;28;20227;-83
2021/10/13 07:32:03;;;;;;;12.73;6.40;;;11.00;95.30;;;;;;5064171;28;20169;-82
2021/10/13 07:35:13;;;;;;;;;;;;;;;;;;;;;
2021/10/13 07:37:42;;;;;;;15.70;6.40;;;11.10;94.90;;;;;;5060571;28;20228;-84
2021/10/13 07:40:13;;;;;;;10.00;5.70;;;11.30;94.80;;;;;;5074623;28;20172;-85
2021/10/13 07:42:58;;;;;;;9.47;6.63;;;11.40;93.90;;;;;;5071374;28;20299;-85
2021/10/13 07:46:02;;;;;;;15.53;6.80;;;11.40;94.10;;;;;;5071391;28;20164;-86
2021/10/13 07:48:41;;;;;;;14.07;7.60;;;11.50;94.00;;;;;;5066577;28;20256;-88
2021/10/13 07:51:24;;;;;;;12.33;7.10;;;11.60;92.70;;;;;;5065429;28;20168;-87
2021/10/13 07:54:06;;;;;;;11.03;6.97;;;11.60;92.40;;;;;;5066498;28;20199;-87
2021/10/13 07:59:38;;;;;;;12.57;7.70;;;11.50;93.40;;;;;;5084752;28;20228;-86
2021/10/13 08:02:07;;;;;;;11.43;7.60;;;11.60;93.40;;;;;;5067527;28;20222;-88
2021/10/13 08:05:03;;;;;;;14.50;7.87;;;11.60;93.40;;;;;;5069984;28;20169;-88
2021/10/13 08:07:28;;;;;;;16.30;9.00;;;11.70;93.40;;;;;;5077303;28;20200;-85
2021/10/13 08:09:58;;;;;;;14.63;7.97;;;11.70;93.00;;;;;;5084207;28;20173;-83
2021/10/13 08:12:29;;;;;;;13.60;6.77;;;11.70;93.50;;;;;;5082410;28;20169;-91
2021/10/13 08:15:07;;;;;;;11.63;6.77;;;11.70;93.70;;;;;;5072273;28;20187;-88
2021/10/13 08:18:38;;;;;;;;;;;;;;;;;;;;;
2021/10/13 08:21:45;;;;;;;14.00;6.73;;;12.00;92.20;;;;;;5070384;28;20220;-92
2021/10/13 08:24:18;;;;;;;15.83;6.67;;;12.00;91.90;;;;;;5079603;28;20165;-89
2021/10/13 08:26:48;;;;;;;9.03;6.87;;;12.30;91.10;;;;;;5078704;28;20181;-90
2021/10/13 08:29:18;;;;;;;15.53;7.03;;;12.30;90.00;;;;;;5079876;28;20192;-87
2021/10/13 08:31:57;;;;;;;;;;;;;;;;;;;;;
2021/10/13 08:38:45;;;;;;;14.37;7.10;;;12.30;91.30;;;;;;5071328;28;20164;-86
2021/10/13 08:41:11;;;;;;;11.37;7.00;;;12.40;91.50;;;;;;5082820;28;20169;-90
2021/10/13 08:43:49;;;;;;;11.33;6.37;;;12.40;91.60;;;;;;5070358;28;20171;-89
2021/10/13 08:47:11;;;;;;;10.73;7.20;;;12.60;90.30;;;;;;5058806;28;20186;-87
2021/10/13 08:49:45;;;;;;;15.20;7.13;;;12.80;88.50;;;;;;5069831;28;20184;-91
2021/10/13 08:52:15;;;;;;;13.83;6.67;;;12.90;84.60;;;;;;5070899;28;20624;-94
2021/10/13 08:54:49;;;;;;;10.13;6.40;;;13.10;81.60;;;;;;5065658;28;20192;-86
2021/10/13 08:57:30;;;;;;;9.17;6.37;;;13.20;82.70;;;;;;5086063;28;20168;-81
2021/10/13 09:00:46;;;;;;;9.43;5.70;;;13.20;82.30;;;;;;5090270;28;20260;-90
2021/10/13 09:03:51;;;;;;;14.17;6.40;;;13.20;83.90;;;;;;5085944;28;20656;-92
2021/10/13 09:07:05;;;;;;;10.23;6.27;;;12.90;90.40;;;;;;5058499;28;20336;-93
2021/10/13 09:09:35;;;;;;;9.57;6.27;;;12.70;92.60;;;;;;5068895;28;20208;-94
2021/10/13 09:12:07;;;;;;;10.87;5.73;;;12.70;93.50;;;;;;5062185;28;20177;-89
2021/10/13 09:14:38;;;;;;;10.43;6.93;;;12.60;93.40;;;;;;5067314;28;20644;-90
2021/10/13 09:17:08;;;;;;;9.13;6.30;;;12.60;94.20;;;;;;5068206;28;20165;-87
2021/10/13 09:19:53;;;;;;;11.10;6.23;;;12.60;94.60;;;;;;5072174;28;20175;-85
2021/10/13 09:22:28;;;;;;;11.23;4.50;;;12.70;95.30;;;;;;5057825;28;20200;-90
2021/10/13 09:24:56;;;;;;;8.47;4.87;;;12.70;94.00;;;;;;5072174;28;20168;-91
2021/10/13 09:27:32;;;;;;;7.70;5.17;;;12.80;94.00;;;;;;5072396;28;20181;-87
2021/10/13 09:30:00;;;;;;;10.30;4.77;;;12.90;94.60;;;;;;5067728;28;20168;-86
2021/10/13 09:32:26;;;;;;;9.63;4.40;;;12.90;95.10;;;;;;5067304;28;20170;-91
2021/10/13 09:34:54;;;;;;;10.87;5.80;;;12.90;93.40;;;;;;5073440;28;20169;-88
2021/10/13 09:37:47;;;;;;;11.07;4.97;;;12.90;93.30;;;;;;5078441;28;20258;-90
2021/10/13 09:40:33;;;;;;;8.17;4.37;;;12.90;94.00;;;;;;5078160;28;20204;-92
2021/10/13 09:43:02;;;;;;;9.50;4.50;;;13.00;94.50;;;;;;5068982;28;20177;-93
2021/10/13 09:45:37;;;;;;;9.23;3.50;;;13.00;93.00;;;;;;5062184;28;20166;-89
2021/10/13 09:48:06;;;;;;;7.80;4.03;;;13.10;91.80;;;;;;5064035;28;20184;-92
2021/10/13 09:50:50;;;;;;;9.97;4.30;;;13.10;91.60;;;;;;5064602;28;20216;-89
2021/10/13 09:53:30;;;;;;;12.10;4.90;;;13.10;91.40;;;;;;5049551;28;20197;-92
2021/10/13 09:55:58;;;;;;;7.30;3.97;;;13.10;91.90;;;;;;5065046;28;20180;-91
2021/10/13 09:58:45;;;;;;;8.70;4.37;;;13.10;91.00;;;;;;5067497;28;20188;-90
2021/10/13 10:01:18;;;;;;;12.07;7.27;;;13.10;90.30;;;;;;5067979;28;20173;-91
2021/10/13 10:04:01;;;;;;;11.73;5.20;;;13.10;90.20;;;;;;5063961;28;20511;-93
2021/10/13 10:06:34;;;;;;;9.27;6.30;;;13.10;90.70;;;;;;5071747;28;20172;-92
2021/10/13 10:09:09;;;;;;;5.73;3.00;;;13.40;88.40;;;;;;5066746;28;20299;-92
2021/10/13 10:11:40;;;;;;;7.83;2.83;;;13.50;87.00;;;;;;5063015;28;20169;-93
2021/10/13 10:14:36;;;;;;;8.30;3.83;;;13.60;85.90;;;;;;5065948;28;20193;-87
2021/10/13 10:17:09;;;;;;;6.13;3.20;;;13.70;84.10;;;;;;5071160;28;20177;-90
2021/10/13 10:19:45;;;;;;;6.67;4.13;;;13.60;79.00;;;;;;5074528;28;20165;-91
2021/10/13 10:22:21;;;;;;;7.67;5.50;;;13.60;80.60;;;;;;5049728;28;20283;-89
2021/10/13 10:24:51;;;;;;;7.93;5.60;;;13.60;79.50;;;;;;5062461;28;20182;-91
2021/10/13 10:27:34;;;;;;;6.50;3.60;;;13.60;80.60;;;;;;5062417;28;20275;-85
2021/10/13 10:30:02;;;;;;;5.70;2.20;;;13.60;79.60;;;;;;5060336;28;20518;-86
2021/10/13 10:32:31;;;;;;;7.77;3.43;;;13.60;76.80;;;;;;5063477;28;20176;-88
2021/10/13 10:35:03;;;;;;;9.70;6.17;;;13.60;76.90;;;;;;5063209;28;20252;-85
2021/10/13 10:38:17;;;;;;;9.23;4.80;;;13.50;79.00;;;;;;5059646;28;20199;-85
2021/10/13 10:40:45;;;;;;;5.20;3.50;;;13.40;80.40;;;;;;5085131;28;20203;-87
2021/10/13 10:43:33;;;;;;;6.80;4.13;;;13.30;86.00;;;;;;5070221;28;20177;-86
2021/10/13 10:46:12;;;;;;;6.77;3.47;;;13.30;88.20;;;;;;5067710;28;20157;-89
2021/10/13 10:48:47;;;;;;;8.67;3.00;;;13.40;89.00;;;;;;5048267;28;20664;-91
2021/10/13 10:51:18;;;;;;;4.90;2.57;;;13.30;90.10;;;;;;5064166;28;20171;-91
2021/10/13 10:54:58;;;;;;;4.90;2.83;;;13.40;90.30;;;;;;5063816;28;20201;-90
2021/10/13 10:57:51;;;;;;;5.60;2.63;;;13.60;87.50;;;;;;5057376;28;20181;-92
2021/10/13 11:00:23;;;;;;;7.47;3.20;;;13.70;86.70;;;;;;5027023;28;20180;-92
2021/10/13 11:02:52;;;;;;;8.00;3.03;;;13.70;88.70;;;;;;5061929;28;20203;-88
2021/10/13 11:05:23;;;;;;;8.30;3.27;;;13.60;90.00;;;;;;5059953;28;20178;-90
2021/10/13 11:07:57;;;;;;;7.30;3.03;;;13.70;90.10;;;;;;5063845;28;20203;-85
2021/10/13 11:10:34;;;;;;;6.87;2.97;;;13.80;88.30;;;;;;5063702;28;20183;-87
2021/10/13 11:14:30;;;;;;;6.50;2.23;;;13.90;87.30;;;;;;5060577;28;20183;-88
2021/10/13 11:16:26;;;;;;;9.57;2.60;;;14.00;79.30;;;;;;5063730;28;20245;-82
2021/10/13 11:18:52;;;;;;;7.30;2.10;;;14.20;72.70;;;;;;5058627;28;20166;-82
2021/10/13 11:21:18;;;;;;;8.17;2.73;;;14.20;70.40;;;;;;5057354;28;20172;-84
2021/10/13 11:23:50;;;;;;;7.77;3.23;;;14.30;69.80;;;;;;5057460;28;20252;-81
2021/10/13 11:26:15;;;;;;;7.37;3.47;;;14.40;71.10;;;;;;5059787;28;20186;-81
2021/10/13 11:28:43;;;;;;;7.10;3.07;;;14.50;72.10;;;;;;5056809;28;20212;-80
2021/10/13 11:31:11;;;;;;;8.87;3.73;;;14.50;71.50;;;;;;5060673;28;20180;-80
2021/10/13 11:33:43;;;;;;;8.77;4.03;;;14.40;74.60;;;;;;5063585;28;20249;-81
2021/10/13 11:36:08;;;;;;;9.77;3.53;;;14.50;75.70;;;;;;5071425;28;20176;-84
2021/10/13 11:38:39;;;;;;;6.50;3.33;;;14.50;74.60;;;;;;5084452;28;20168;-83
2021/10/13 11:41:17;;;;;;;10.10;3.53;;;14.50;75.30;;;;;;5083518;28;20165;-81
2021/10/13 11:43:45;;;;;;;8.67;3.50;;;14.60;73.10;;;;;;5068199;28;20185;-81
2021/10/13 11:46:18;;;;;;;10.47;4.00;;;14.70;71.20;;;;;;5076959;28;20170;-81
2021/10/13 11:48:47;;;;;;;10.30;4.60;;;14.90;67.10;;;;;;5076344;28;20210;-79
2021/10/13 11:51:14;;;;;;;10.70;3.93;;;14.80;69.10;;;;;;5075844;28;20165;-82
2021/10/13 11:53:48;;;;;;;9.97;4.37;;;14.90;70.50;;;;;;5087326;28;20287;-81
2021/10/13 11:56:15;;;;;;;8.87;4.07;;;14.90;67.50;;;;;;5100055;28;20639;-81
2021/10/13 11:58:42;;;;;;;6.67;4.17;;;14.90;68.40;;;;;;5064477;28;20173;-83
2021/10/13 12:01:14;;;;;;;9.83;4.53;;;15.10;66.90;;;;;;5087811;28;20247;-80
2021/10/13 12:03:41;;;;;;;11.23;4.00;;;15.30;62.10;;;;;;5093354;28;20180;-80
2021/10/13 12:06:08;;;;;;;9.77;3.87;;;15.30;55.40;;;;;;5073533;28;20187;-81
2021/10/13 12:08:36;;;;;;;7.70;4.07;;;15.20;53.50;;;;;;5070732;28;20745;-82
2021/10/13 12:11:10;;;;;;;7.80;4.07;;;15.20;52.80;;;;;;5080994;28;20186;-80
2021/10/13 12:13:46;;;;;;;9.47;4.50;;;15.10;57.50;;;;;;5058875;28;20179;-81
2021/10/13 12:16:20;;;;;;;8.07;4.90;;;15.10;60.20;;;;;;5057489;28;20202;-81
2021/10/13 12:18:47;;;;;;;7.70;4.20;;;15.20;59.30;;;;;;5074545;28;20172;-80
2021/10/13 12:21:35;;;;;;;11.50;5.20;;;15.20;57.20;;;;;;5090544;28;20222;-85
2021/10/13 12:24:13;;;;;;;9.93;4.97;;;15.20;57.60;;;;;;5073953;28;20189;-81
2021/10/13 12:26:44;;;;;;;23.57;21.50;;;15.40;56.90;;;;;;5067327;28;20234;-81
2021/10/13 12:29:18;;;;;;;9.40;5.40;;;15.40;56.20;;;;;;5067078;28;20223;-80
2021/10/13 12:32:17;;;;;;;7.50;4.03;;;15.40;56.90;;;;;;5085269;28;20179;-82
2021/10/13 12:34:52;;;;;;;10.57;4.23;;;15.50;45.30;;;;;;5087379;28;20247;-83
2021/10/13 12:37:21;;;;;;;9.47;4.53;;;15.50;47.90;;;;;;5079256;28;20173;-80
2021/10/13 12:40:18;;;;;;;10.40;4.97;;;15.50;49.90;;;;;;5071071;28;20490;-82
2021/10/13 12:43:19;;;;;;;8.60;3.90;;;15.60;49.30;;;;;;5072677;28;20204;-83
2021/10/13 12:45:49;;;;;;;8.33;3.67;;;15.70;41.10;;;;;;5078047;28;20200;-82
2021/10/13 12:48:18;;;;;;;8.00;3.77;;;15.80;29.40;;;;;;5095896;28;20199;-83
2021/10/13 12:51:10;;;;;;;6.50;3.07;;;15.80;32.60;;;;;;5065837;28;20181;-83
2021/10/13 12:53:37;;;;;;;7.43;2.97;;;15.70;26.70;;;;;;5057836;28;20193;-81
2021/10/13 12:56:06;;;;;;;9.43;3.70;;;15.70;23.90;;;;;;5053682;28;20219;-81
2021/10/13 12:58:31;;;;;;;8.90;3.20;;;15.70;26.20;;;;;;5057983;28;20200;-80
2021/10/13 13:00:57;;;;;;;7.97;3.40;;;15.70;22.30;;;;;;5074304;28;20200;-81
2021/10/13 13:03:28;;;;;;;6.17;3.60;;;15.70;25.10;;;;;;5086062;28;20205;-82
2021/10/13 13:05:56;;;;;;;5.93;3.20;;;15.50;29.10;;;;;;5094049;28;20218;-82
2021/10/13 13:08:29;;;;;;;11.07;3.40;;;15.50;26.70;;;;;;5112189;28;20211;-80
2021/10/13 13:10:59;;;;;;;7.87;3.07;;;15.60;22.20;;;;;;5078497;28;20176;-82
2021/10/13 13:13:28;;;;;;;6.60;2.70;;;15.50;17.90;;;;;;5073148;28;20173;-80
2021/10/13 13:16:01;;;;;;;8.17;2.70;;;15.40;17.00;;;;;;5068458;28;20183;-80
2021/10/13 13:18:31;;;;;;;7.13;2.73;;;15.40;20.40;;;;;;5078685;28;20181;-80
2021/10/13 13:21:00;;;;;;;8.80;3.63;;;15.40;17.50;;;;;;5071568;28;20172;-82
2021/10/13 13:23:51;;;;;;;12.77;4.17;;;15.40;23.20;;;;;;5073105;28;20197;-81
2021/10/13 13:26:18;;;;;;;9.17;3.63;;;15.60;26.70;;;;;;5069025;28;20193;-83
2021/10/13 13:28:50;;;;;;;7.80;4.00;;;15.50;33.70;;;;;;5070988;28;20221;-82
2021/10/13 13:31:28;;;;;;;9.97;4.07;;;15.50;31.90;;;;;;5068478;28;20193;-84
2021/10/13 13:33:58;;;;;;;10.00;3.93;;;15.50;35.30;;;;;;5087592;28;20225;-82
2021/10/13 13:36:30;;;;;;;7.40;3.07;;;15.50;37.20;;;;;;5092817;28;20177;-80
2021/10/13 13:38:56;;;;;;;5.67;3.07;;;15.60;30.60;;;;;;5090501;28;20176;-81
2021/10/13 13:41:51;;;;;;;9.17;3.60;;;15.80;26.80;;;;;;5076213;28;20188;-81
2021/10/13 13:44:28;;;;;;;7.20;3.73;;;15.80;23.00;;;;;;5075145;28;20255;-81
2021/10/13 13:46:55;;;;;;;7.97;2.90;;;16.00;16.90;;;;;;5089946;28;20172;-80
2021/10/13 13:49:21;;;;;;;9.47;3.23;;;16.20;4.10;;;;;;5096572;28;20189;-90
2021/10/13 13:51:47;;;;;;;9.40;4.17;;;16.40;1.00;;;;;;5097991;28;20163;-84
2021/10/13 13:54:13;;;;;;;7.43;3.30;;;16.30;1.00;;;;;;5113239;28;20278;-87
2021/10/13 13:56:40;;;;;;;6.63;3.83;;;16.30;3.30;;;;;;5095008;28;20191;-88
2021/10/13 13:59:07;;;;;;;8.73;3.90;;;16.30;4.10;;;;;;5079543;28;20180;-86
2021/10/13 14:01:33;;;;;;;7.53;3.20;;;16.30;1.00;;;;;;5087565;28;20186;-86
2021/10/13 14:04:04;;;;;;;12.67;3.70;;;16.30;1.00;;;;;;5064574;28;20236;-83
2021/10/13 14:06:41;;;;;;;9.27;3.03;;;16.30;1.00;;;;;;5064841;28;20177;-81
2021/10/13 14:09:32;;;;;;;9.83;2.63;;;16.30;1.00;;;;;;5066430;28;20204;-85
2021/10/13 14:12:14;;;;;;;7.90;2.30;;;16.30;1.00;;;;;;5078251;28;20184;-84
2021/10/13 14:15:11;;;;;;;14.40;4.10;;;16.30;1.00;;;;;;5079599;28;20195;-84
2021/10/13 14:17:47;;;;;;;8.63;3.20;;;16.30;1.00;;;;;;5081793;28;20176;-84
2021/10/13 14:21:00;;;;;;;6.67;2.20;;;16.30;1.00;;;;;;5084794;28;20197;-84
2021/10/13 14:24:08;;;;;;;9.67;2.80;;;16.10;1.00;;;;;;5083449;28;20236;-84
2021/10/13 14:26:35;;;;;;;7.37;2.57;;;16.10;1.00;;;;;;5071319;28;20214;-84
2021/10/13 14:29:14;;;;;;;7.23;2.67;;;16.00;1.00;;;;;;5073752;28;20655;-85